createdAt,value
2018-04-19T00:01:21.523Z,17.90
2018-04-19T00:03:49.644Z,17.90
2018-04-19T00:06:17.792Z,17.80
2018-04-19T00:08:45.891Z,17.70
2018-04-19T00:11:13.982Z,17.70
2018-04-19T00:13:42.079Z,17.70
2018-04-19T00:16:10.915Z,17.60
2018-04-19T00:18:39.008Z,17.60
2018-04-19T00:21:07.073Z,17.60
2018-04-19T00:23:35.139Z,17.60
2018-04-19T00:26:03.226Z,17.50
2018-04-19T00:28:31.297Z,17.40
2018-04-19T00:31:00.603Z,17.40
2018-04-19T00:33:29.498Z,17.40
2018-04-19T00:35:57.607Z,17.40
2018-04-19T00:38:26.652Z,17.40
2018-04-19T00:40:55.531Z,17.40
2018-04-19T00:43:24.113Z,17.30
2018-04-19T00:45:52.249Z,17.30
2018-04-19T00:48:20.430Z,17.20
2018-04-19T00:50:48.488Z,17.10
2018-04-19T00:53:16.578Z,17.10
2018-04-19T00:55:45.431Z,17.10
2018-04-19T00:58:13.494Z,17.00
2018-04-19T01:00:41.571Z,17.00
2018-04-19T01:03:09.650Z,17.10
2018-04-19T01:05:37.741Z,17.00
2018-04-19T01:08:05.787Z,17.10
2018-04-19T01:10:34.269Z,17.10
2018-04-19T01:13:02.342Z,17.00
2018-04-19T01:15:31.206Z,17.10
2018-04-19T01:17:59.283Z,17.00
2018-04-19T01:20:27.334Z,17.00
2018-04-19T01:22:55.406Z,16.90
2018-04-19T01:25:23.466Z,16.80
2018-04-19T01:27:51.538Z,16.80
2018-04-19T01:30:19.628Z,16.90
2018-04-19T01:32:47.720Z,16.90
2018-04-19T01:35:15.800Z,16.90
2018-04-19T01:37:43.894Z,16.90
2018-04-19T01:40:11.994Z,16.90
2018-04-19T01:42:40.501Z,16.90
2018-04-19T01:45:08.590Z,16.80
2018-04-19T01:47:36.695Z,16.80
2018-04-19T01:50:05.537Z,16.80
2018-04-19T01:52:33.617Z,16.80
2018-04-19T01:55:01.693Z,16.80
2018-04-19T01:57:30.546Z,16.80
2018-04-19T01:59:58.634Z,16.70
2018-04-19T02:02:27.499Z,16.70
2018-04-19T02:09:55.037Z,16.60
2018-04-19T02:12:23.879Z,16.50
2018-04-19T02:14:52.717Z,16.50
2018-04-19T02:17:20.827Z,16.50
2018-04-19T02:19:48.917Z,16.50
2018-04-19T02:22:18.492Z,16.50
2018-04-19T02:24:46.561Z,16.50
2018-04-19T02:27:14.667Z,16.50
2018-04-19T02:29:43.477Z,16.50
2018-04-19T02:32:11.559Z,16.40
2018-04-19T02:34:39.635Z,16.40
2018-04-19T02:37:07.716Z,16.30
2018-04-19T02:39:35.804Z,16.20
2018-04-19T02:42:03.913Z,16.30
2018-04-19T02:44:31.967Z,16.20
2018-04-19T02:47:00.018Z,16.20
2018-04-19T02:49:28.099Z,16.10
2018-04-19T02:52:01.099Z,16.10
2018-04-19T02:54:30.388Z,16.00
2018-04-19T02:56:58.450Z,16.00
2018-04-19T02:59:26.533Z,16.00
2018-04-19T03:01:54.614Z,15.90
2018-04-19T03:04:22.707Z,15.90
2018-04-19T03:06:50.766Z,15.90
2018-04-19T03:09:19.608Z,15.90
2018-04-19T03:11:47.691Z,15.90
2018-04-19T03:14:15.756Z,15.90
2018-04-19T03:16:43.810Z,15.90
2018-04-19T03:19:11.889Z,15.90
2018-04-19T03:21:40.733Z,15.90
2018-04-19T03:24:09.582Z,15.90
2018-04-19T03:26:37.718Z,15.90
2018-04-19T03:29:06.519Z,15.80
2018-04-19T03:31:35.470Z,15.80
2018-04-19T03:34:03.506Z,15.80
2018-04-19T03:36:31.594Z,15.70
2018-04-19T03:38:59.668Z,15.60
2018-04-19T03:41:27.735Z,15.60
2018-04-19T03:43:55.798Z,15.60
2018-04-19T03:46:23.886Z,15.50
2018-04-19T03:48:51.957Z,15.50
2018-04-19T03:51:20.023Z,15.50
2018-04-19T03:53:48.108Z,15.40
2018-04-19T03:56:16.182Z,15.40
2018-04-19T03:58:45.033Z,15.30
2018-04-19T04:01:13.114Z,15.20
2018-04-19T04:03:41.204Z,15.20
2018-04-19T04:06:09.287Z,17.60
2018-04-19T04:08:38.128Z,15.20
2018-04-19T04:11:06.217Z,15.20
2018-04-19T04:13:34.299Z,15.20
2018-04-19T04:16:02.363Z,15.10
2018-04-19T04:18:43.805Z,15.20
2018-04-19T04:21:18.833Z,15.20
2018-04-19T04:23:51.477Z,15.20
2018-04-19T04:26:19.571Z,15.20
2018-04-19T04:28:48.426Z,15.20
2018-04-19T04:31:16.540Z,15.20
2018-04-19T04:33:44.586Z,15.10
2018-04-19T04:36:12.665Z,15.20
2018-04-19T04:38:41.525Z,15.10
2018-04-19T04:41:09.617Z,15.10
2018-04-19T04:43:37.706Z,15.10
2018-04-19T04:46:06.562Z,15.20
2018-04-19T04:48:34.653Z,15.20
2018-04-19T04:51:02.742Z,15.20
2018-04-19T04:53:31.562Z,15.30
2018-04-19T04:55:59.621Z,15.30
2018-04-19T04:58:27.738Z,15.40
2018-04-19T05:00:55.826Z,15.50
2018-04-19T05:03:23.909Z,15.50
2018-04-19T05:05:52.722Z,15.50
2018-04-19T05:08:20.802Z,15.60
2018-04-19T05:10:48.859Z,15.60
2018-04-19T05:13:16.957Z,15.60
2018-04-19T05:15:45.010Z,15.60
2018-04-19T05:18:13.067Z,15.60
2018-04-19T05:20:41.929Z,15.70
2018-04-19T05:23:10.015Z,15.70
2018-04-19T05:25:38.837Z,15.80
2018-04-19T05:28:06.903Z,15.80
2018-04-19T05:30:34.990Z,15.90
2018-04-19T05:33:03.068Z,16.00
2018-04-19T05:35:31.126Z,16.00
2018-04-19T05:37:59.201Z,17.30
2018-04-19T05:40:27.282Z,16.10
2018-04-19T05:42:55.385Z,16.20
2018-04-19T05:45:23.470Z,16.40
2018-04-19T05:47:51.535Z,16.40
2018-04-19T05:50:19.590Z,16.40
2018-04-19T05:52:47.661Z,17.10
2018-04-19T05:55:15.732Z,17.80
2018-04-19T05:57:43.862Z,18.10
2018-04-19T06:00:12.646Z,19.70
2018-04-19T06:02:40.729Z,19.70
2018-04-19T06:05:08.786Z,21.10
2018-04-19T06:07:36.866Z,22.20
2018-04-19T06:10:05.088Z,24.50
2018-04-19T06:12:33.115Z,24.80
2018-04-19T06:15:01.200Z,25.30
2018-04-19T06:17:29.336Z,26.70
2018-04-19T06:19:57.375Z,27.40
2018-04-19T06:22:25.451Z,27.50
2018-04-19T06:24:53.513Z,28.40
2018-04-19T06:27:21.579Z,28.50
2018-04-19T06:29:49.713Z,29.00
2018-04-19T06:32:17.766Z,29.90
2018-04-19T06:34:46.590Z,30.10
2018-04-19T06:37:14.650Z,30.10
2018-04-19T06:39:42.750Z,30.10
2018-04-19T06:42:10.822Z,30.70
2018-04-19T06:44:38.943Z,31.90
2018-04-19T06:47:07.554Z,32.50
2018-04-19T06:49:35.656Z,32.70
2018-04-19T06:52:03.718Z,32.80
2018-04-19T06:54:31.785Z,33.20
2018-04-19T06:56:59.877Z,33.30
2018-04-19T06:59:27.957Z,33.90
2018-04-19T07:01:56.013Z,34.50
2018-04-19T07:04:24.753Z,34.20
2018-04-19T07:06:52.882Z,34.20
2018-04-19T07:09:22.430Z,34.40
2018-04-19T07:11:50.516Z,34.80
2018-04-19T07:14:18.608Z,35.00
2018-04-19T07:16:47.921Z,35.10
2018-04-19T07:19:16.003Z,35.90
2018-04-19T07:21:44.177Z,36.30
2018-04-19T07:24:13.014Z,35.00
2018-04-19T07:26:41.865Z,36.70
2018-04-19T07:29:09.979Z,36.70
2018-04-19T07:31:38.787Z,37.50
2018-04-19T07:34:06.845Z,37.40
2018-04-19T07:36:34.930Z,37.50
2018-04-19T07:39:03.033Z,37.90
2018-04-19T07:41:31.083Z,38.10
2018-04-19T07:43:59.156Z,38.40
2018-04-19T07:46:27.359Z,38.00
2018-04-19T07:48:55.421Z,38.20
2018-04-19T07:51:23.493Z,38.50
2018-04-19T07:53:51.621Z,39.20
2018-04-19T07:56:20.282Z,39.20
2018-04-19T07:58:49.890Z,39.70
2018-04-19T08:01:18.746Z,40.00
2018-04-19T08:03:47.197Z,40.50
2018-04-19T08:06:15.676Z,40.80
2018-04-19T08:08:43.757Z,41.20
2018-04-19T08:11:11.887Z,41.40
2018-04-19T08:13:39.929Z,41.30
2018-04-19T08:16:08.006Z,41.00
2018-04-19T08:18:36.102Z,41.60
2018-04-19T08:21:05.071Z,41.60
2018-04-19T08:23:33.179Z,42.20
2018-04-19T08:26:02.021Z,42.20
2018-04-19T08:28:30.178Z,42.10
2018-04-19T08:30:58.271Z,42.40
2018-04-19T08:33:26.327Z,42.50
2018-04-19T08:35:54.413Z,42.70
2018-04-19T08:38:22.483Z,43.10
2018-04-19T08:40:50.579Z,43.00
2018-04-19T08:43:19.431Z,43.80
2018-04-19T08:45:47.490Z,43.70
2018-04-19T08:48:15.626Z,44.10
2018-04-19T08:50:44.464Z,43.50
2018-04-19T08:53:12.550Z,43.60
2018-04-19T08:55:40.640Z,44.40
2018-04-19T08:58:08.723Z,44.90
2018-04-19T09:00:37.522Z,45.10
2018-04-19T09:03:05.605Z,45.20
2018-04-19T09:05:33.704Z,45.20
2018-04-19T09:08:02.539Z,44.80
2018-04-19T09:10:31.385Z,44.50
2018-04-19T09:12:59.446Z,44.40
2018-04-19T09:15:27.581Z,45.40
2018-04-19T09:17:55.655Z,45.40
2018-04-19T09:20:24.314Z,45.60
2018-04-19T09:22:52.360Z,44.90
2018-04-19T09:25:20.505Z,44.50
2018-04-19T09:27:48.552Z,44.50
2018-04-19T09:30:17.429Z,44.80
2018-04-19T09:32:46.274Z,45.60
2018-04-19T09:35:14.394Z,45.50
2018-04-19T09:37:42.541Z,45.40
2018-04-19T09:40:11.610Z,45.40
2018-04-19T09:42:40.225Z,44.90
2018-04-19T09:45:08.298Z,44.50
2018-04-19T09:47:36.397Z,44.30
2018-04-19T09:50:04.868Z,44.30
2018-04-19T09:52:33.703Z,44.50
2018-04-19T09:55:01.789Z,44.70
2018-04-19T09:57:30.257Z,44.60
2018-04-19T09:59:58.326Z,44.60
2018-04-19T10:02:29.266Z,44.30
2018-04-19T10:05:02.150Z,44.70
2018-04-19T10:07:30.244Z,45.10
2018-04-19T10:09:58.319Z,44.70
2018-04-19T10:12:26.700Z,44.60
2018-04-19T10:14:54.770Z,44.50
2018-04-19T10:17:22.835Z,44.40
2018-04-19T10:19:50.913Z,44.20
2018-04-19T10:22:18.982Z,43.70
2018-04-19T10:24:47.055Z,42.40
2018-04-19T10:27:15.137Z,42.30
2018-04-19T10:29:43.208Z,42.10
2018-04-19T10:32:11.300Z,42.40
2018-04-19T10:34:40.135Z,42.80
2018-04-19T10:37:08.207Z,43.30
2018-04-19T10:39:36.301Z,43.40
2018-04-19T10:42:04.374Z,43.30
2018-04-19T10:44:32.454Z,42.90
2018-04-19T10:47:00.513Z,43.10
2018-04-19T10:49:28.626Z,43.00
2018-04-19T10:51:56.738Z,43.20
2018-04-19T10:54:25.723Z,43.20
2018-04-19T10:56:53.824Z,43.10
2018-04-19T10:59:21.894Z,42.60
2018-04-19T11:01:50.471Z,42.50
2018-04-19T11:04:18.522Z,42.00
2018-04-19T11:06:46.599Z,41.50
2018-04-19T11:09:14.666Z,41.20
2018-04-19T11:11:42.750Z,41.00
2018-04-19T11:14:10.816Z,41.00
2018-04-19T11:16:38.907Z,40.80
2018-04-19T11:19:06.978Z,40.70
2018-04-19T11:21:35.957Z,40.60
2018-04-19T11:24:04.566Z,40.40
2018-04-19T11:26:32.597Z,40.30
2018-04-19T11:29:00.935Z,38.90
2018-04-19T11:31:29.784Z,38.20
2018-04-19T11:33:57.857Z,38.10
2018-04-19T11:36:27.204Z,37.80
2018-04-19T11:38:56.040Z,37.60
2018-04-19T11:41:24.113Z,37.50
2018-04-19T11:43:52.179Z,37.50
2018-04-19T11:46:20.830Z,37.60
2018-04-19T11:48:48.934Z,37.20
2018-04-19T11:51:16.978Z,37.20
2018-04-19T11:53:45.068Z,37.20
2018-04-19T11:56:13.149Z,36.50
2018-04-19T11:58:41.246Z,35.90
2018-04-19T12:01:09.322Z,35.30
2018-04-19T12:03:37.361Z,35.00
2018-04-19T12:06:05.447Z,35.10
2018-04-19T12:08:33.619Z,35.10
2018-04-19T12:11:01.698Z,34.90
2018-04-19T12:13:30.613Z,35.00
2018-04-19T12:15:58.678Z,35.20
2018-04-19T12:18:26.748Z,35.10
2018-04-19T12:20:54.825Z,35.20
2018-04-19T12:23:22.886Z,35.30
2018-04-19T12:25:51.016Z,35.20
2018-04-19T12:28:19.459Z,34.80
2018-04-19T12:30:48.284Z,34.30
2018-04-19T12:33:16.362Z,34.30
2018-04-19T12:35:44.450Z,33.90
2018-04-19T12:38:12.510Z,33.90
2018-04-19T12:40:40.579Z,33.80
2018-04-19T12:43:08.655Z,33.50
2018-04-19T12:45:37.521Z,33.30
2018-04-19T12:48:06.342Z,33.10
2018-04-19T12:50:34.824Z,33.10
2018-04-19T12:53:02.887Z,32.90
2018-04-19T12:55:30.977Z,32.80
2018-04-19T12:57:59.081Z,33.10
2018-04-19T13:00:27.941Z,33.30
2018-04-19T13:02:55.989Z,33.40
2018-04-19T13:05:24.453Z,33.60
2018-04-19T13:07:53.278Z,33.60
2018-04-19T13:10:21.343Z,33.50
2018-04-19T13:12:49.430Z,33.10
2018-04-19T13:15:17.893Z,32.90
2018-04-19T13:17:46.925Z,33.00
2018-04-19T13:20:15.806Z,33.00
2018-04-19T13:22:43.874Z,33.10
2018-04-19T13:25:11.947Z,33.00
2018-04-19T13:27:39.999Z,33.00
2018-04-19T13:30:08.076Z,32.80
2018-04-19T13:32:36.555Z,32.50
2018-04-19T13:35:05.023Z,32.20
2018-04-19T13:37:33.114Z,31.90
2018-04-19T13:40:01.192Z,31.80
2018-04-19T13:42:30.030Z,31.80
2018-04-19T13:44:58.102Z,31.80
2018-04-19T13:47:26.189Z,31.80
2018-04-19T13:49:54.344Z,31.80
2018-04-19T13:52:22.469Z,31.80
2018-04-19T13:54:50.576Z,31.70
2018-04-19T13:57:18.663Z,31.70
2018-04-19T13:59:47.470Z,31.20
2018-04-19T14:02:15.712Z,30.90
2018-04-19T14:04:44.682Z,30.90
2018-04-19T14:07:13.576Z,30.90
2018-04-19T14:09:42.593Z,30.90
2018-04-19T14:12:11.463Z,31.00
2018-04-19T14:14:40.470Z,30.90
2018-04-19T14:17:09.450Z,30.70
2018-04-19T14:19:38.474Z,30.60
2018-04-19T14:22:06.620Z,30.60
2018-04-19T14:24:35.729Z,30.40
2018-04-19T14:27:04.624Z,30.40
2018-04-19T14:29:34.457Z,30.30
2018-04-19T14:32:02.588Z,30.10
2018-04-19T14:34:30.892Z,30.00
2018-04-19T14:36:59.635Z,30.00
2018-04-19T14:39:27.852Z,30.00
2018-04-19T14:41:56.110Z,30.10
2018-04-19T14:44:24.658Z,30.10
2018-04-19T14:46:52.850Z,30.00
2018-04-19T14:49:22.918Z,29.80
2018-04-19T14:51:51.066Z,29.80
2018-04-19T14:54:20.016Z,29.70
2018-04-19T14:56:48.243Z,29.60
2018-04-19T14:59:16.678Z,29.50
2018-04-19T15:01:44.818Z,29.40
2018-04-19T15:04:13.033Z,29.20
2018-04-19T15:06:41.592Z,29.10
2018-04-19T15:09:09.731Z,29.10
2018-04-19T15:11:37.908Z,29.10
2018-04-19T15:14:06.066Z,28.90
2018-04-19T15:16:35.125Z,29.00
2018-04-19T15:19:03.313Z,29.00
2018-04-19T15:21:31.526Z,28.90
2018-04-19T15:24:00.147Z,28.90
2018-04-19T15:26:28.286Z,28.90
2018-04-19T15:28:56.470Z,28.90
2018-04-19T15:31:24.582Z,28.80
2018-04-19T15:33:52.740Z,28.80
2018-04-19T15:36:20.923Z,28.80
2018-04-19T15:38:49.504Z,28.80
2018-04-19T15:41:17.874Z,28.80
2018-04-19T15:43:46.842Z,28.70
2018-04-19T15:46:14.950Z,28.70
2018-04-19T15:48:43.083Z,28.70
2018-04-19T15:51:11.261Z,28.60
2018-04-19T15:53:39.474Z,28.50
2018-04-19T15:56:07.664Z,28.40
2018-04-19T15:58:35.881Z,28.40
2018-04-19T16:01:03.996Z,28.20
2018-04-19T16:03:32.146Z,28.10
2018-04-19T16:06:00.281Z,28.20
2018-04-19T16:08:28.418Z,28.20
2018-04-19T16:10:56.671Z,28.00
2018-04-19T16:13:24.808Z,28.00
2018-04-19T16:15:53.435Z,27.80
2018-04-19T16:18:21.618Z,27.60
2018-04-19T16:20:49.781Z,27.50
2018-04-19T16:23:17.934Z,27.40
2018-04-19T16:25:46.077Z,27.30
2018-04-19T16:28:14.211Z,27.40
2018-04-19T16:30:42.269Z,27.40
2018-04-19T16:33:10.526Z,27.40
2018-04-19T16:35:38.709Z,27.40
2018-04-19T16:38:07.744Z,27.30
2018-04-19T16:40:36.639Z,27.30
2018-04-19T16:43:05.545Z,27.30
2018-04-19T16:45:34.407Z,27.10
2018-04-19T16:48:02.538Z,27.10
2018-04-19T16:50:30.659Z,27.00
2018-04-19T16:52:59.627Z,26.80
2018-04-19T16:55:27.819Z,26.80
2018-04-19T16:57:55.992Z,26.70
2018-04-19T17:00:24.245Z,26.70
2018-04-19T17:02:52.876Z,26.60
2018-04-19T17:05:21.757Z,26.60
2018-04-19T17:07:50.697Z,26.60
2018-04-19T17:10:18.896Z,26.60
2018-04-19T17:12:47.047Z,26.50
2018-04-19T17:15:15.209Z,26.40
2018-04-19T17:17:43.326Z,26.30
2018-04-19T17:20:11.564Z,26.30
2018-04-19T17:22:40.527Z,26.30
2018-04-19T17:25:08.697Z,26.30
2018-04-19T17:27:36.858Z,26.20
2018-04-19T17:30:05.977Z,26.00
2018-04-19T17:32:34.962Z,25.90
2018-04-19T17:35:03.083Z,25.90
2018-04-19T17:37:31.244Z,25.80
2018-04-19T17:39:59.365Z,25.70
2018-04-19T17:42:28.239Z,25.60
2018-04-19T17:44:56.392Z,25.50
2018-04-19T17:47:24.598Z,25.40
2018-04-19T17:49:53.724Z,25.30
2018-04-19T17:52:22.624Z,25.30
2018-04-19T17:54:50.751Z,25.30
2018-04-19T17:57:19.665Z,25.20
2018-04-19T17:59:47.797Z,25.20
2018-04-19T18:02:16.747Z,25.20
2018-04-19T18:04:44.834Z,25.10
2018-04-19T18:07:12.950Z,25.00
2018-04-19T18:09:42.665Z,24.90
2018-04-19T18:12:11.482Z,24.90
2018-04-19T18:14:39.567Z,24.90
2018-04-19T18:17:07.654Z,24.80
2018-04-19T18:19:35.725Z,24.70
2018-04-19T18:22:03.813Z,24.60
2018-04-19T18:24:31.874Z,24.50
2018-04-19T18:26:59.930Z,24.40
2018-04-19T18:29:28.028Z,24.20
2018-04-19T18:31:56.128Z,24.10
2018-04-19T18:34:24.981Z,24.10
2018-04-19T18:36:53.843Z,24.00
2018-04-19T18:39:21.889Z,23.90
2018-04-19T18:41:50.375Z,23.90
2018-04-19T18:44:18.471Z,23.80
2018-04-19T18:46:46.546Z,23.80
2018-04-19T18:49:14.614Z,23.70
2018-04-19T18:51:45.790Z,23.70
2018-04-19T18:54:14.626Z,23.60
2018-04-19T18:56:43.078Z,23.60
2018-04-19T18:59:11.162Z,23.50
2018-04-19T19:04:08.639Z,23.50
2018-04-19T19:06:37.099Z,23.40
2018-04-19T19:09:06.088Z,23.30
2018-04-19T19:11:34.492Z,23.20
2018-04-19T19:14:03.744Z,23.10
2018-04-19T19:16:31.866Z,23.00
2018-04-19T19:19:11.829Z,23.00
2018-04-19T19:21:40.691Z,22.90
2018-04-19T19:24:08.751Z,22.80
2018-04-19T19:26:36.837Z,22.80
2018-04-19T19:29:04.889Z,22.70
2018-04-19T19:31:32.937Z,22.70
2018-04-19T19:34:01.015Z,22.70
2018-04-19T19:36:29.164Z,22.60
2018-04-19T19:38:58.801Z,22.60
2018-04-19T19:41:26.890Z,22.60
2018-04-19T19:43:55.048Z,22.50
2018-04-19T19:46:23.122Z,22.50
2018-04-19T19:48:51.251Z,22.50
2018-04-19T19:51:19.354Z,22.50
2018-04-19T19:53:47.475Z,22.40
2018-04-19T19:56:15.593Z,22.40
2018-04-19T19:58:43.701Z,22.40
2018-04-19T20:01:11.854Z,22.40
2018-04-19T20:03:39.946Z,22.30
2018-04-19T20:06:08.030Z,22.20
2018-04-19T20:08:36.115Z,22.20
2018-04-19T20:11:04.305Z,22.20
2018-04-19T20:13:32.417Z,22.10
2018-04-19T20:16:00.510Z,22.10
2018-04-19T20:18:29.220Z,22.00
2018-04-19T20:20:57.393Z,21.90
2018-04-19T20:23:25.693Z,21.90
2018-04-19T20:25:54.612Z,21.90
2018-04-19T20:28:22.758Z,21.90
2018-04-19T20:30:50.960Z,21.80
2018-04-19T20:33:19.083Z,21.80
2018-04-19T20:35:47.207Z,21.70
2018-04-19T20:38:15.342Z,21.70
2018-04-19T20:40:43.452Z,21.70
2018-04-19T20:43:12.717Z,21.60
2018-04-19T20:45:41.316Z,21.60
2018-04-19T20:48:09.405Z,21.60
2018-04-19T20:50:37.489Z,21.60
2018-04-19T20:53:05.594Z,21.50
2018-04-19T20:55:34.449Z,21.40
2018-04-19T20:58:02.506Z,21.40
2018-04-19T21:00:30.586Z,21.40
2018-04-19T21:02:58.657Z,21.40
2018-04-19T21:05:26.709Z,21.40
2018-04-19T21:07:55.023Z,21.30
2018-04-19T21:10:23.563Z,21.20
2018-04-19T21:12:52.393Z,21.10
2018-04-19T21:15:20.602Z,21.10
2018-04-19T21:17:48.631Z,21.00
2018-04-19T21:20:16.735Z,20.90
2018-04-19T21:22:44.791Z,20.90
2018-04-19T21:25:12.841Z,20.90
2018-04-19T21:27:40.926Z,20.80
2018-04-19T21:30:09.025Z,20.80
2018-04-19T21:32:37.838Z,20.70
2018-04-19T21:35:06.424Z,20.70
2018-04-19T21:37:34.539Z,20.70
2018-04-19T21:40:02.643Z,20.70
2018-04-19T21:42:30.685Z,20.60
2018-04-19T21:45:00.395Z,20.50
2018-04-19T21:47:28.474Z,20.50
2018-04-19T21:49:58.908Z,20.50
2018-04-19T21:52:26.984Z,20.50
2018-04-19T21:54:55.909Z,20.50
2018-04-19T21:57:23.966Z,20.40
2018-04-19T21:59:52.798Z,20.30
2018-04-19T22:02:20.882Z,20.30
2018-04-19T22:04:51.271Z,20.20
2018-04-19T22:07:19.335Z,20.20
2018-04-19T22:09:47.450Z,20.20
2018-04-19T22:12:15.522Z,20.10
2018-04-19T22:14:43.635Z,20.10
2018-04-19T22:17:11.667Z,20.10
2018-04-19T22:19:39.751Z,20.10
2018-04-19T22:22:07.867Z,20.00
2018-04-19T22:24:35.966Z,20.00
2018-04-19T22:27:04.037Z,20.00
2018-04-19T22:29:32.093Z,19.90
2018-04-19T22:32:00.175Z,19.80
2018-04-19T22:34:28.230Z,19.80
2018-04-19T22:36:56.351Z,19.80
2018-04-19T22:39:24.402Z,19.80
2018-04-19T22:41:52.483Z,19.80
2018-04-19T22:44:20.542Z,19.70
2018-04-19T22:46:48.647Z,19.70
2018-04-19T22:49:16.682Z,19.70
2018-04-19T22:51:44.764Z,19.60
2018-04-19T22:54:12.838Z,19.60
2018-04-19T22:56:40.933Z,19.60
2018-04-19T22:59:08.990Z,19.50
2018-04-19T23:01:37.076Z,19.50
2018-04-19T23:04:05.129Z,19.40
2018-04-19T23:06:33.237Z,19.40
2018-04-19T23:09:01.292Z,19.30
2018-04-19T23:11:29.378Z,19.30
2018-04-19T23:13:58.209Z,19.30
2018-04-19T23:16:26.323Z,19.30
2018-04-19T23:18:54.414Z,19.30
2018-04-19T23:21:23.253Z,19.20
2018-04-19T23:23:51.366Z,19.20
2018-04-19T23:26:20.325Z,19.20
2018-04-19T23:28:48.410Z,19.10
2018-04-19T23:31:16.496Z,19.10
2018-04-19T23:33:44.551Z,19.00
2018-04-19T23:36:12.610Z,19.00
2018-04-19T23:38:41.434Z,19.00
2018-04-19T23:41:10.248Z,18.90
2018-04-19T23:43:38.314Z,18.90
2018-04-19T23:46:06.411Z,18.90
2018-04-19T23:48:34.497Z,18.90
2018-04-19T23:51:02.543Z,18.80
2018-04-19T23:53:30.597Z,18.70
2018-04-19T23:55:59.442Z,18.60
2018-04-19T23:58:27.545Z,18.60
